createdAt,value
2024-03-05T00:00:29.653Z,63.38
2024-03-05T00:02:56.547Z,63.72
2024-03-05T00:05:23.540Z,63.28
2024-03-05T00:07:50.549Z,63.25
2024-03-05T00:10:17.962Z,63.26
2024-03-05T00:12:44.962Z,62.65
2024-03-05T00:15:11.874Z,62.68
2024-03-05T00:17:38.959Z,62.82
2024-03-05T00:20:06.447Z,62.32
2024-03-05T00:22:33.600Z,62.24
2024-03-05T00:25:00.786Z,62.31
2024-03-05T00:27:27.803Z,62.20
2024-03-05T00:29:54.769Z,61.70
2024-03-05T00:32:21.695Z,61.78
2024-03-05T00:34:48.677Z,62.20
2024-03-05T00:37:15.645Z,61.85
2024-03-05T00:39:42.686Z,62.20
2024-03-05T00:42:09.969Z,62.40
2024-03-05T00:44:36.935Z,62.41
2024-03-05T00:47:04.253Z,62.07
2024-03-05T00:49:33.528Z,62.00
2024-03-05T00:52:00.465Z,62.01
2024-03-05T00:54:27.487Z,62.29
2024-03-05T00:56:54.373Z,62.27
2024-03-05T00:59:21.264Z,62.35
2024-03-05T01:01:48.313Z,61.55
2024-03-05T01:04:15.434Z,62.50
2024-03-05T01:06:45.588Z,62.67
2024-03-05T01:09:12.731Z,62.70
2024-03-05T01:11:39.756Z,62.95
2024-03-05T01:14:06.960Z,62.90
2024-03-05T01:16:34.004Z,63.45
2024-03-05T01:19:00.896Z,63.00
2024-03-05T01:21:27.776Z,62.86
2024-03-05T01:23:54.799Z,63.58
2024-03-05T01:26:21.701Z,63.96
2024-03-05T01:28:48.700Z,64.23
2024-03-05T01:31:15.743Z,63.87
2024-03-05T01:33:42.700Z,64.09
2024-03-05T01:36:09.621Z,63.61
2024-03-05T01:38:36.550Z,64.56
2024-03-05T01:41:03.697Z,64.16
2024-03-05T01:43:30.612Z,64.16
2024-03-05T01:45:57.907Z,63.68
2024-03-05T01:48:24.962Z,64.14
2024-03-05T01:50:52.220Z,64.55
2024-03-05T01:53:20.192Z,64.44
2024-03-05T01:55:48.326Z,64.04
2024-03-05T01:58:16.837Z,63.89
2024-03-05T02:00:44.242Z,63.57
2024-03-05T02:03:11.791Z,63.43
2024-03-05T02:05:44.222Z,64.26
2024-03-05T02:08:12.588Z,63.61
2024-03-05T02:10:41.229Z,63.83
2024-03-05T02:13:10.215Z,63.83
2024-03-05T02:15:37.279Z,63.42
2024-03-05T02:18:04.775Z,63.51
2024-03-05T02:20:31.756Z,63.18
2024-03-05T02:22:58.733Z,63.83
2024-03-05T02:25:25.624Z,63.43
2024-03-05T02:27:53.795Z,63.34
2024-03-05T02:30:21.007Z,63.48
2024-03-05T02:32:48.213Z,62.98
2024-03-05T02:35:15.270Z,63.43
2024-03-05T02:37:42.873Z,63.29
2024-03-05T02:40:13.642Z,63.00
2024-03-05T02:42:40.914Z,62.51
2024-03-05T02:45:09.054Z,62.73
2024-03-05T02:47:36.637Z,62.87
2024-03-05T02:50:04.958Z,62.65
2024-03-05T02:52:32.053Z,62.51
2024-03-05T02:54:59.375Z,63.60
2024-03-05T02:57:26.419Z,63.15
2024-03-05T02:59:53.341Z,63.09
2024-03-05T03:02:20.531Z,62.31
2024-03-05T03:04:47.962Z,62.69
2024-03-05T03:07:15.019Z,61.97
2024-03-05T03:09:46.250Z,62.53
2024-03-05T03:12:13.488Z,62.78
2024-03-05T03:14:44.828Z,62.10
2024-03-05T03:17:13.323Z,62.61
2024-03-05T03:19:46.566Z,61.58
2024-03-05T03:22:13.663Z,62.05
2024-03-05T03:24:40.871Z,61.74
2024-03-05T03:27:07.981Z,62.00
2024-03-05T03:29:34.932Z,61.45
2024-03-05T03:32:01.934Z,61.86
2024-03-05T03:34:29.113Z,61.27
2024-03-05T03:36:56.122Z,61.15
2024-03-05T03:39:23.113Z,61.09
2024-03-05T03:41:59.074Z,61.81
2024-03-05T03:44:26.148Z,61.02
2024-03-05T03:46:53.319Z,60.77
2024-03-05T03:49:22.619Z,61.06
2024-03-05T03:51:49.646Z,60.97
2024-03-05T03:54:16.841Z,60.87
2024-03-05T03:56:43.808Z,61.36
2024-03-05T03:59:10.783Z,61.52
2024-03-05T04:01:37.775Z,61.45
2024-03-05T04:04:04.921Z,61.69
2024-03-05T04:06:34.613Z,61.56
2024-03-05T04:09:01.667Z,61.00
2024-03-05T04:11:28.646Z,60.94
2024-03-05T04:13:55.786Z,61.47
2024-03-05T04:16:22.824Z,61.11
2024-03-05T04:18:49.857Z,60.83
2024-03-05T04:21:16.747Z,60.91
2024-03-05T04:23:44.019Z,60.83
2024-03-05T04:26:11.097Z,60.23
2024-03-05T04:28:45.806Z,60.42
2024-03-05T04:31:13.602Z,60.38
2024-03-05T04:33:40.618Z,60.53
2024-03-05T04:36:07.862Z,60.22
2024-03-05T04:38:34.804Z,60.03
2024-03-05T04:41:01.902Z,60.35
2024-03-05T04:43:28.907Z,60.16
2024-03-05T04:45:55.924Z,59.97
2024-03-05T04:48:22.843Z,60.04
2024-03-05T04:50:51.420Z,59.44
2024-03-05T04:53:18.549Z,59.05
2024-03-05T04:55:45.744Z,59.39
2024-03-05T04:58:12.947Z,58.71
2024-03-05T05:00:40.257Z,58.47
2024-03-05T05:03:07.351Z,58.78
2024-03-05T05:05:34.408Z,57.85
2024-03-05T05:08:01.891Z,57.37
2024-03-05T05:10:29.124Z,57.25
2024-03-05T05:12:56.174Z,57.62
2024-03-05T05:15:23.955Z,57.37
2024-03-05T05:17:51.011Z,56.81
2024-03-05T05:20:19.839Z,57.69
2024-03-05T05:22:46.926Z,57.80
2024-03-05T05:25:15.020Z,57.39
2024-03-05T05:27:42.380Z,56.81
2024-03-05T05:30:14.153Z,56.74
2024-03-05T05:32:42.049Z,56.50
2024-03-05T05:35:09.911Z,56.56
2024-03-05T05:38:43.650Z,56.44
2024-03-05T05:41:11.223Z,56.19
2024-03-05T05:43:38.747Z,56.37
2024-03-05T05:46:05.999Z,56.43
2024-03-05T05:48:33.592Z,56.07
2024-03-05T05:51:00.666Z,55.97
2024-03-05T05:53:28.136Z,55.94
2024-03-05T05:55:55.234Z,55.92
2024-03-05T05:58:22.231Z,56.06
2024-03-05T06:00:49.472Z,55.77
2024-03-05T06:03:16.370Z,55.45
2024-03-05T06:05:43.580Z,55.27
2024-03-05T06:08:10.572Z,55.82
2024-03-05T06:10:38.625Z,55.50
2024-03-05T06:13:05.526Z,55.24
2024-03-05T06:15:32.592Z,54.79
2024-03-05T06:17:59.908Z,54.50
2024-03-05T06:20:27.448Z,54.76
2024-03-05T06:22:54.342Z,54.38
2024-03-05T06:25:21.510Z,55.46
2024-03-05T06:27:48.457Z,54.46
2024-03-05T06:30:16.021Z,54.00
2024-03-05T06:32:44.157Z,53.86
2024-03-05T06:35:11.259Z,53.45
2024-03-05T06:37:41.940Z,53.28
2024-03-05T06:40:10.093Z,53.58
2024-03-05T06:42:41.566Z,52.81
2024-03-05T06:45:10.162Z,51.97
2024-03-05T06:47:37.383Z,51.84
2024-03-05T06:50:04.672Z,51.26
2024-03-05T06:52:31.726Z,51.65
2024-03-05T06:54:58.750Z,51.26
2024-03-05T06:57:25.720Z,50.51
2024-03-05T06:59:52.800Z,50.07
2024-03-05T07:02:19.857Z,49.91
2024-03-05T07:04:47.283Z,49.40
2024-03-05T07:07:14.239Z,49.07
2024-03-05T07:09:42.121Z,48.90
2024-03-05T07:12:09.136Z,48.63
2024-03-05T07:14:36.224Z,49.33
2024-03-05T07:17:03.300Z,48.99
2024-03-05T07:19:30.333Z,49.28
2024-03-05T07:21:57.309Z,48.93
2024-03-05T07:24:24.324Z,49.34
2024-03-05T07:26:56.995Z,49.26
2024-03-05T07:29:31.607Z,48.83
2024-03-05T07:31:58.546Z,48.96
2024-03-05T07:34:25.695Z,48.26
2024-03-05T07:36:52.743Z,47.82
2024-03-05T07:57:09.864Z,49.36
2024-03-05T07:59:36.875Z,49.04
2024-03-05T08:02:04.016Z,48.45
2024-03-05T08:04:31.065Z,48.41
2024-03-05T08:06:58.778Z,48.64
2024-03-05T08:09:25.850Z,48.36
2024-03-05T08:11:52.829Z,48.13
2024-03-05T08:14:19.861Z,48.59
2024-03-05T08:16:46.849Z,48.01
2024-03-05T08:19:13.937Z,48.05
2024-03-05T08:21:40.864Z,48.49
2024-03-05T08:24:08.049Z,47.93
2024-03-05T08:26:35.096Z,48.67
2024-03-05T08:29:03.616Z,48.12
2024-03-05T08:31:30.666Z,47.71
2024-03-05T08:33:57.741Z,47.44
2024-03-05T08:36:24.692Z,46.70
2024-03-05T08:38:51.793Z,47.03
2024-03-05T08:41:18.741Z,46.50
2024-03-05T08:43:45.793Z,46.08
2024-03-05T08:46:12.910Z,46.30
2024-03-05T08:48:40.020Z,46.09
2024-03-05T08:51:06.957Z,45.30
2024-03-05T08:53:33.891Z,46.30
2024-03-05T08:56:00.967Z,46.50
2024-03-05T08:58:28.178Z,46.73
2024-03-05T09:00:55.443Z,46.41
2024-03-05T09:03:22.487Z,46.71
2024-03-05T09:05:49.474Z,46.82
2024-03-05T09:08:16.623Z,46.20
2024-03-05T09:10:43.621Z,46.23
2024-03-05T09:13:10.571Z,46.85
2024-03-05T09:15:41.717Z,46.45
2024-03-05T09:18:10.811Z,45.87
2024-03-05T09:20:37.769Z,45.86
2024-03-05T09:23:05.074Z,45.23
2024-03-05T09:25:32.085Z,45.06
2024-03-05T09:27:59.166Z,45.71
2024-03-05T09:30:26.077Z,45.21
2024-03-05T09:32:53.504Z,45.80
2024-03-05T09:35:20.541Z,45.05
2024-03-05T09:37:47.555Z,45.35
2024-03-05T09:40:15.258Z,44.86
2024-03-05T09:42:42.266Z,44.61
2024-03-05T09:45:14.835Z,45.36
2024-03-05T09:47:42.470Z,44.96
2024-03-05T09:50:13.017Z,45.04
2024-03-05T09:52:40.371Z,44.52
2024-03-05T09:55:07.828Z,43.79
2024-03-05T09:57:35.856Z,44.46
2024-03-05T10:00:03.013Z,44.46
2024-03-05T10:02:39.834Z,44.65
2024-03-05T10:05:09.774Z,43.99
2024-03-05T10:07:36.779Z,43.60
2024-03-05T10:10:07.902Z,44.63
2024-03-05T10:12:35.350Z,44.81
2024-03-05T10:15:19.143Z,44.58
2024-03-05T10:17:48.515Z,44.13
2024-03-05T10:20:25.307Z,44.46
2024-03-05T10:22:53.000Z,44.31
2024-03-05T10:25:20.341Z,44.85
2024-03-05T10:27:48.544Z,44.37
2024-03-05T10:30:29.677Z,44.68
2024-03-05T10:32:59.815Z,44.34
2024-03-05T10:35:28.220Z,44.52
2024-03-05T10:38:03.889Z,44.12
2024-03-05T10:40:32.407Z,43.07
2024-03-05T10:43:01.228Z,43.67
2024-03-05T10:45:28.576Z,43.36
2024-03-05T10:47:57.014Z,43.55
2024-03-05T10:50:25.581Z,43.55
2024-03-05T10:52:57.096Z,43.53
2024-03-05T10:55:25.253Z,43.03
2024-03-05T10:57:53.621Z,43.23
2024-03-05T11:00:20.822Z,43.46
2024-03-05T11:02:48.601Z,44.51
2024-03-05T11:05:17.717Z,44.04
2024-03-05T11:07:45.368Z,44.72
2024-03-05T11:10:12.407Z,44.08
2024-03-05T11:12:40.312Z,44.04
2024-03-05T11:15:08.273Z,44.39
2024-03-05T11:17:35.913Z,44.76
2024-03-05T11:20:03.114Z,44.58
2024-03-05T11:22:30.163Z,44.40
2024-03-05T11:25:05.786Z,44.61
2024-03-05T11:27:35.041Z,44.55
2024-03-05T11:30:11.511Z,44.93
2024-03-05T11:32:39.777Z,45.30
2024-03-05T11:35:10.353Z,44.96
2024-03-05T11:37:47.962Z,44.46
2024-03-05T11:40:17.782Z,44.12
2024-03-05T11:42:46.096Z,44.43
2024-03-05T11:45:48.765Z,44.56
2024-03-05T11:48:17.914Z,44.59
2024-03-05T11:50:45.777Z,44.46
2024-03-05T11:53:13.518Z,44.64
2024-03-05T11:55:40.866Z,45.16
2024-03-05T11:58:08.049Z,44.59
2024-03-05T12:00:35.721Z,44.78
2024-03-05T12:03:03.347Z,45.66
2024-03-05T12:05:31.159Z,45.33
2024-03-05T12:08:03.013Z,45.19
2024-03-05T12:10:32.214Z,45.45
2024-03-05T12:13:00.122Z,45.47
2024-03-05T12:15:33.340Z,45.66
2024-03-05T12:18:05.602Z,45.33
2024-03-05T12:20:32.681Z,46.24
2024-03-05T12:22:59.649Z,46.20
2024-03-05T12:25:30.081Z,46.16
2024-03-05T12:27:57.219Z,46.38
2024-03-05T12:30:25.629Z,46.40
2024-03-05T12:32:55.323Z,46.37
2024-03-05T12:35:22.342Z,46.61
2024-03-05T12:37:51.115Z,46.78
2024-03-05T12:40:22.859Z,47.28
2024-03-05T12:42:50.704Z,46.89
2024-03-05T12:45:19.148Z,47.21
2024-03-05T12:48:00.649Z,47.13
2024-03-05T12:50:30.856Z,46.61
2024-03-05T12:53:05.003Z,47.49
2024-03-05T12:55:32.910Z,47.58
2024-03-05T12:58:10.578Z,47.36
2024-03-05T13:00:37.915Z,47.60
2024-03-05T13:03:06.197Z,47.95
2024-03-05T13:05:38.237Z,47.52
2024-03-05T13:08:06.553Z,47.53
2024-03-05T13:10:34.780Z,47.17
2024-03-05T13:13:02.027Z,47.17
2024-03-05T13:15:28.950Z,47.00
2024-03-05T13:17:55.973Z,47.77
2024-03-05T13:20:23.080Z,47.98
2024-03-05T13:22:52.452Z,47.65
2024-03-05T13:25:20.556Z,47.80
2024-03-05T13:27:48.501Z,47.88
2024-03-05T13:30:16.977Z,48.22
2024-03-05T13:32:51.426Z,48.37
2024-03-05T13:35:19.501Z,48.67
2024-03-05T13:37:46.917Z,49.05
2024-03-05T13:40:15.014Z,49.15
2024-03-05T13:42:42.025Z,49.47
2024-03-05T13:45:09.398Z,48.77
2024-03-05T13:47:36.431Z,48.89
2024-03-05T13:50:03.729Z,48.86
2024-03-05T13:52:30.816Z,49.63
2024-03-05T13:54:57.942Z,49.77
2024-03-05T13:57:24.818Z,50.01
2024-03-05T13:59:51.750Z,50.33
2024-03-05T14:02:18.773Z,50.71
2024-03-05T14:04:45.850Z,50.29
2024-03-05T14:07:12.822Z,50.33
2024-03-05T14:09:39.858Z,50.28
2024-03-05T14:12:07.330Z,50.96
2024-03-05T14:14:34.625Z,52.32
2024-03-05T14:17:01.677Z,52.71
2024-03-05T14:19:28.912Z,52.60
2024-03-05T14:21:55.848Z,53.20
2024-03-05T14:24:22.911Z,52.56
2024-03-05T14:26:49.853Z,53.21
2024-03-05T14:29:16.858Z,52.95
2024-03-05T14:31:43.785Z,53.88
2024-03-05T14:34:10.831Z,53.44
2024-03-05T14:36:37.770Z,54.23
2024-03-05T14:39:04.961Z,53.80
2024-03-05T14:41:31.904Z,54.25
2024-03-05T14:43:59.032Z,55.08
2024-03-05T14:46:26.299Z,54.29
2024-03-05T14:48:53.304Z,54.61
2024-03-05T14:51:21.566Z,55.01
2024-03-05T14:53:48.607Z,55.47
2024-03-05T14:56:15.594Z,55.32
2024-03-05T14:58:42.689Z,55.24
2024-03-05T15:01:09.842Z,55.23
2024-03-05T15:03:36.888Z,55.21
2024-03-05T15:06:04.894Z,55.15
2024-03-05T15:08:32.116Z,54.88
2024-03-05T15:10:59.266Z,54.81
2024-03-05T15:13:26.324Z,55.42
2024-03-05T15:15:53.280Z,55.14
2024-03-05T15:18:20.755Z,55.24
2024-03-05T15:20:47.750Z,55.84
2024-03-05T15:23:14.978Z,55.85
2024-03-05T15:25:42.124Z,55.92
2024-03-05T15:28:09.425Z,56.02
2024-03-05T15:30:36.797Z,55.93
2024-03-05T15:33:05.567Z,56.34
2024-03-05T15:35:33.416Z,56.48
2024-03-05T15:38:00.972Z,56.15
2024-03-05T15:40:28.381Z,56.15
2024-03-05T15:42:56.775Z,56.24
2024-03-05T15:45:27.554Z,56.69
2024-03-05T15:47:55.078Z,57.86
2024-03-05T15:50:25.110Z,58.30
2024-03-05T15:52:54.412Z,58.18
2024-03-05T15:55:24.067Z,57.86
2024-03-05T15:57:52.241Z,57.65
2024-03-05T16:00:20.105Z,57.45
2024-03-05T16:02:47.145Z,57.42
2024-03-05T16:05:23.499Z,56.99
2024-03-05T16:07:56.740Z,57.55
2024-03-05T16:10:24.086Z,57.22
2024-03-05T16:12:51.216Z,57.89
2024-03-05T16:15:19.238Z,58.13
2024-03-05T16:17:46.879Z,57.73
2024-03-05T16:20:14.469Z,59.57
2024-03-05T16:22:44.564Z,59.29
2024-03-05T16:25:12.662Z,59.28
2024-03-05T16:27:41.052Z,60.53
2024-03-05T16:30:09.755Z,60.10
2024-03-05T16:32:36.895Z,60.17
2024-03-05T16:35:04.195Z,60.07
2024-03-05T16:37:31.931Z,61.17
2024-03-05T16:39:59.876Z,62.50
2024-03-05T16:42:26.809Z,62.01
2024-03-05T16:44:57.329Z,61.49
2024-03-05T16:47:24.270Z,63.26
2024-03-05T16:49:51.267Z,62.48
2024-03-05T16:52:18.243Z,63.19
2024-03-05T16:54:45.423Z,62.81
2024-03-05T16:57:12.392Z,63.05
2024-03-05T16:59:39.344Z,63.79
2024-03-05T17:02:06.296Z,63.13
2024-03-05T17:04:35.550Z,62.85
2024-03-05T17:07:02.561Z,63.59
2024-03-05T17:09:30.074Z,62.82
2024-03-05T17:11:59.994Z,62.01
2024-03-05T17:14:27.914Z,63.43
2024-03-05T17:16:55.178Z,62.76
2024-03-05T17:19:22.296Z,62.89
2024-03-05T17:21:49.308Z,62.33
2024-03-05T17:24:16.494Z,62.27
2024-03-05T17:26:43.731Z,62.74
2024-03-05T17:29:12.334Z,62.45
2024-03-05T17:31:39.769Z,63.01
2024-03-05T17:34:06.681Z,62.66
2024-03-05T17:36:34.056Z,61.75
2024-03-05T17:39:00.997Z,61.89
2024-03-05T17:41:28.080Z,62.00
2024-03-05T17:43:56.160Z,61.91
2024-03-05T17:46:23.238Z,61.81
2024-03-05T17:48:50.318Z,61.93
2024-03-05T17:51:18.121Z,62.05
2024-03-05T17:53:46.173Z,61.99
2024-03-05T17:56:13.920Z,61.97
2024-03-05T17:58:42.361Z,61.72
2024-03-05T18:01:10.241Z,62.50
2024-03-05T18:03:37.357Z,61.96
2024-03-05T18:06:04.858Z,62.19
2024-03-05T18:08:31.824Z,62.22
2024-03-05T18:11:00.181Z,62.34
2024-03-05T18:13:27.425Z,62.75
2024-03-05T18:15:54.452Z,61.91
2024-03-05T18:18:21.758Z,61.87
2024-03-05T18:20:48.829Z,62.07
2024-03-05T18:23:15.951Z,62.53
2024-03-05T18:25:43.085Z,62.10
2024-03-05T18:28:10.186Z,63.00
2024-03-05T18:30:37.416Z,62.32
2024-03-05T18:33:06.293Z,61.80
2024-03-05T18:35:36.243Z,62.87
2024-03-05T18:38:04.834Z,62.16
2024-03-05T18:40:37.158Z,61.66
2024-03-05T18:43:04.259Z,62.05
2024-03-05T18:45:31.351Z,61.53
2024-03-05T18:48:03.452Z,61.47
2024-03-05T18:50:36.531Z,61.07
2024-03-05T18:53:05.898Z,61.08
2024-03-05T18:55:34.492Z,61.90
2024-03-05T18:58:01.480Z,61.65
2024-03-05T19:00:30.873Z,61.24
2024-03-05T19:02:57.944Z,61.21
2024-03-05T19:05:25.105Z,61.38
2024-03-05T19:07:52.151Z,61.06
2024-03-05T19:10:20.251Z,60.34
2024-03-05T19:12:48.188Z,60.16
2024-03-05T19:15:15.918Z,59.62
2024-03-05T19:17:43.152Z,59.20
2024-03-05T19:20:10.711Z,59.37
2024-03-05T19:22:39.329Z,60.49
2024-03-05T19:25:07.921Z,59.35
2024-03-05T19:27:35.247Z,59.85
2024-03-05T19:30:02.412Z,60.72
2024-03-05T19:32:29.499Z,60.48
2024-03-05T19:34:56.606Z,60.56
2024-03-05T19:37:23.719Z,61.45
2024-03-05T19:39:50.782Z,60.75
2024-03-05T19:42:17.844Z,61.73
2024-03-05T19:44:47.291Z,61.06
2024-03-05T19:47:14.418Z,61.36
2024-03-05T19:49:41.476Z,61.19
2024-03-05T19:52:09.509Z,61.74
2024-03-05T19:54:36.431Z,61.75
2024-03-05T19:57:03.398Z,61.31
2024-03-05T19:59:30.551Z,61.23
2024-03-05T20:01:57.732Z,61.40
2024-03-05T20:04:24.857Z,62.36
2024-03-05T20:06:51.769Z,62.95
2024-03-05T20:09:18.819Z,63.16
2024-03-05T20:11:45.904Z,63.48
2024-03-05T20:14:12.936Z,63.67
2024-03-05T20:16:40.072Z,63.53
2024-03-05T20:19:07.418Z,63.13
2024-03-05T20:21:34.574Z,63.95
2024-03-05T20:24:01.448Z,64.10
2024-03-05T20:26:28.381Z,63.71
2024-03-05T20:28:55.423Z,63.97
2024-03-05T20:31:22.420Z,64.77
2024-03-05T20:33:49.740Z,64.78
2024-03-05T20:36:16.903Z,64.94
2024-03-05T20:38:43.941Z,64.75
2024-03-05T20:41:11.045Z,65.14
2024-03-05T20:43:38.109Z,64.79
2024-03-05T20:46:05.126Z,65.32
2024-03-05T20:48:32.318Z,65.24
2024-03-05T20:50:59.390Z,65.06
2024-03-05T20:53:26.343Z,65.84
2024-03-05T20:55:53.300Z,66.54
2024-03-05T20:58:20.332Z,66.81
2024-03-05T21:00:47.519Z,66.21
2024-03-05T21:03:14.520Z,66.45
2024-03-05T21:05:41.773Z,65.79
2024-03-05T21:08:08.810Z,67.03
2024-03-05T21:10:36.185Z,68.04
2024-03-05T21:13:03.268Z,66.89
2024-03-05T21:15:30.306Z,67.22
2024-03-05T21:17:57.331Z,68.09
2024-03-05T21:20:24.418Z,68.49
2024-03-05T21:22:51.561Z,67.81
2024-03-05T21:25:18.663Z,67.79
2024-03-05T21:27:45.674Z,67.49
2024-03-05T21:30:13.129Z,67.13
2024-03-05T21:32:40.679Z,66.72
2024-03-05T21:35:08.153Z,67.13
2024-03-05T21:37:35.661Z,66.36
2024-03-05T21:40:02.986Z,66.70
2024-03-05T21:42:29.973Z,66.95
2024-03-05T21:44:56.886Z,66.33
2024-03-05T21:47:23.919Z,66.29
2024-03-05T21:49:51.247Z,66.74
2024-03-05T21:52:18.247Z,66.73
2024-03-05T21:54:45.234Z,67.65
2024-03-05T21:57:12.157Z,66.52
2024-03-05T21:59:39.183Z,66.94
2024-03-05T22:02:06.558Z,66.72
2024-03-05T22:04:33.709Z,66.61
2024-03-05T22:07:00.577Z,66.69
2024-03-05T22:09:27.525Z,66.54
2024-03-05T22:11:54.673Z,66.22
2024-03-05T22:14:22.594Z,66.23
2024-03-05T22:16:49.709Z,65.68
2024-03-05T22:19:16.645Z,65.14
2024-03-05T22:21:43.574Z,65.22
2024-03-05T22:24:10.478Z,64.73
2024-03-05T22:26:38.126Z,64.74
2024-03-05T22:29:05.136Z,64.43
2024-03-05T22:31:32.115Z,64.37
2024-03-05T22:33:59.226Z,64.62
2024-03-05T22:36:26.193Z,64.36
2024-03-05T22:38:53.233Z,63.94
2024-03-05T22:41:20.352Z,64.56
2024-03-05T22:43:47.373Z,63.91
2024-03-05T22:46:14.288Z,64.58
2024-03-05T22:48:41.671Z,64.09
2024-03-05T22:51:08.626Z,65.14
2024-03-05T22:53:35.992Z,64.10
2024-03-05T22:56:03.030Z,63.89
2024-03-05T22:58:30.078Z,64.46
2024-03-05T23:00:57.011Z,64.18
2024-03-05T23:03:23.995Z,64.26
2024-03-05T23:05:50.909Z,64.58
2024-03-05T23:08:17.840Z,65.11
2024-03-05T23:10:44.894Z,64.14
2024-03-05T23:13:11.855Z,64.36
2024-03-05T23:15:38.783Z,64.40
2024-03-05T23:18:06.027Z,63.62
2024-03-05T23:20:32.972Z,64.30
2024-03-05T23:22:59.911Z,63.95
2024-03-05T23:25:27.054Z,63.87
2024-03-05T23:27:54.316Z,64.39
2024-03-05T23:30:21.512Z,63.86
2024-03-05T23:32:48.818Z,64.41
2024-03-05T23:35:16.005Z,63.32
2024-03-05T23:37:43.147Z,64.01
2024-03-05T23:40:10.822Z,63.18
2024-03-05T23:42:38.536Z,64.19
2024-03-05T23:45:05.750Z,63.59
2024-03-05T23:47:33.353Z,64.05
2024-03-05T23:50:01.637Z,63.89
2024-03-05T23:52:29.073Z,63.29
2024-03-05T23:54:59.970Z,63.35
2024-03-05T23:57:29.325Z,63.74
2024-03-05T23:59:56.341Z,63.34
